sensor_id;sensor_type;location;lat;lon;timestamp;P1;durP1;ratioP1;P2;durP2;ratioP2
67063;SDS011;58476;48.072;11.970;2023-04-25T00:02:19;4.43;;;1.00;;
67063;SDS011;58476;48.072;11.970;2023-04-25T00:04:45;5.35;;;1.00;;
67063;SDS011;58476;48.072;11.970;2023-04-25T00:07:10;3.78;;;0.90;;
67063;SDS011;58476;48.072;11.970;2023-04-25T00:09:35;1.20;;;0.90;;
67063;SDS011;58476;48.072;11.970;2023-04-25T00:12:01;2.05;;;1.00;;
67063;SDS011;58476;48.072;11.970;2023-04-25T00:14:26;1.15;;;1.00;;
67063;SDS011;58476;48.072;11.970;2023-04-25T00:16:52;2.10;;;1.10;;
67063;SDS011;58476;48.072;11.970;2023-04-25T00:19:17;5.50;;;1.20;;
67063;SDS011;58476;48.072;11.970;2023-04-25T00:21:42;4.05;;;1.20;;
67063;SDS011;58476;48.072;11.970;2023-04-25T00:24:08;7.63;;;1.38;;
67063;SDS011;58476;48.072;11.970;2023-04-25T00:26:33;3.47;;;1.05;;
67063;SDS011;58476;48.072;11.970;2023-04-25T00:29:00;4.95;;;1.70;;
67063;SDS011;58476;48.072;11.970;2023-04-25T00:31:25;2.85;;;1.20;;
67063;SDS011;58476;48.072;11.970;2023-04-25T00:33:50;4.45;;;1.17;;
67063;SDS011;58476;48.072;11.970;2023-04-25T00:36:16;2.38;;;0.80;;
67063;SDS011;58476;48.072;11.970;2023-04-25T00:38:41;2.70;;;1.00;;
67063;SDS011;58476;48.072;11.970;2023-04-25T00:41:07;3.35;;;1.10;;
67063;SDS011;58476;48.072;11.970;2023-04-25T00:43:32;1.95;;;1.02;;
67063;SDS011;58476;48.072;11.970;2023-04-25T00:45:59;2.83;;;0.88;;
67063;SDS011;58476;48.072;11.970;2023-04-25T00:48:25;2.05;;;1.00;;
67063;SDS011;58476;48.072;11.970;2023-04-25T00:50:51;3.03;;;1.17;;
67063;SDS011;58476;48.072;11.970;2023-04-25T00:53:18;4.63;;;1.00;;
67063;SDS011;58476;48.072;11.970;2023-04-25T00:55:45;2.13;;;1.00;;
67063;SDS011;58476;48.072;11.970;2023-04-25T00:58:11;2.72;;;0.90;;
67063;SDS011;58476;48.072;11.970;2023-04-25T01:00:37;1.65;;;0.88;;
67063;SDS011;58476;48.072;11.970;2023-04-25T01:03:02;1.48;;;0.88;;
67063;SDS011;58476;48.072;11.970;2023-04-25T01:05:28;2.40;;;0.90;;
67063;SDS011;58476;48.072;11.970;2023-04-25T01:07:53;3.33;;;1.30;;
67063;SDS011;58476;48.072;11.970;2023-04-25T01:10:19;0.85;;;0.85;;
67063;SDS011;58476;48.072;11.970;2023-04-25T01:12:45;3.47;;;0.93;;
67063;SDS011;58476;48.072;11.970;2023-04-25T01:15:10;1.00;;;0.80;;
67063;SDS011;58476;48.072;11.970;2023-04-25T01:17:35;1.75;;;0.90;;
67063;SDS011;58476;48.072;11.970;2023-04-25T01:20:04;1.80;;;0.90;;
67063;SDS011;58476;48.072;11.970;2023-04-25T01:22:31;2.08;;;1.00;;
67063;SDS011;58476;48.072;11.970;2023-04-25T01:24:57;1.92;;;0.80;;
67063;SDS011;58476;48.072;11.970;2023-04-25T01:27:23;1.52;;;0.77;;
67063;SDS011;58476;48.072;11.970;2023-04-25T01:29:49;1.33;;;0.70;;
67063;SDS011;58476;48.072;11.970;2023-04-25T01:32:15;0.80;;;0.70;;
67063;SDS011;58476;48.072;11.970;2023-04-25T01:34:41;5.63;;;0.95;;
67063;SDS011;58476;48.072;11.970;2023-04-25T01:37:06;0.80;;;0.80;;
67063;SDS011;58476;48.072;11.970;2023-04-25T01:39:31;2.13;;;0.93;;
67063;SDS011;58476;48.072;11.970;2023-04-25T01:41:58;0.77;;;0.77;;
67063;SDS011;58476;48.072;11.970;2023-04-25T01:44:24;0.70;;;0.70;;
67063;SDS011;58476;48.072;11.970;2023-04-25T01:46:50;2.50;;;1.00;;
67063;SDS011;58476;48.072;11.970;2023-04-25T01:49:15;1.98;;;0.77;;
67063;SDS011;58476;48.072;11.970;2023-04-25T01:51:42;1.40;;;1.10;;
67063;SDS011;58476;48.072;11.970;2023-04-25T01:54:08;0.73;;;0.73;;
67063;SDS011;58476;48.072;11.970;2023-04-25T01:56:36;1.33;;;0.80;;
67063;SDS011;58476;48.072;11.970;2023-04-25T01:59:03;2.58;;;0.88;;
67063;SDS011;58476;48.072;11.970;2023-04-25T02:01:59;2.92;;;0.90;;
67063;SDS011;58476;48.072;11.970;2023-04-25T02:04:29;0.80;;;0.77;;
67063;SDS011;58476;48.072;11.970;2023-04-25T02:06:55;0.73;;;0.60;;
67063;SDS011;58476;48.072;11.970;2023-04-25T02:09:21;2.55;;;0.70;;
67063;SDS011;58476;48.072;11.970;2023-04-25T02:11:52;1.58;;;0.90;;
67063;SDS011;58476;48.072;11.970;2023-04-25T02:14:27;0.80;;;0.80;;
67063;SDS011;58476;48.072;11.970;2023-04-25T02:17:01;2.08;;;0.70;;
67063;SDS011;58476;48.072;11.970;2023-04-25T02:19:28;0.70;;;0.70;;
67063;SDS011;58476;48.072;11.970;2023-04-25T02:21:54;1.52;;;1.35;;
67063;SDS011;58476;48.072;11.970;2023-04-25T02:24:19;1.33;;;0.73;;
67063;SDS011;58476;48.072;11.970;2023-04-25T02:26:45;0.75;;;0.63;;
67063;SDS011;58476;48.072;11.970;2023-04-25T02:29:11;0.63;;;0.63;;
67063;SDS011;58476;48.072;11.970;2023-04-25T02:31:37;0.82;;;0.80;;
67063;SDS011;58476;48.072;11.970;2023-04-25T02:34:02;1.20;;;0.70;;
67063;SDS011;58476;48.072;11.970;2023-04-25T02:36:28;0.90;;;0.77;;
67063;SDS011;58476;48.072;11.970;2023-04-25T02:38:53;0.90;;;0.80;;
67063;SDS011;58476;48.072;11.970;2023-04-25T02:41:19;0.80;;;0.80;;
67063;SDS011;58476;48.072;11.970;2023-04-25T02:43:46;0.80;;;0.80;;
67063;SDS011;58476;48.072;11.970;2023-04-25T02:46:12;0.90;;;0.85;;
67063;SDS011;58476;48.072;11.970;2023-04-25T02:48:38;0.60;;;0.60;;
67063;SDS011;58476;48.072;11.970;2023-04-25T02:51:03;0.98;;;0.57;;
67063;SDS011;58476;48.072;11.970;2023-04-25T02:53:29;2.67;;;1.05;;
67063;SDS011;58476;48.072;11.970;2023-04-25T02:55:54;2.85;;;0.85;;
67063;SDS011;58476;48.072;11.970;2023-04-25T02:58:20;1.30;;;0.77;;
67063;SDS011;58476;48.072;11.970;2023-04-25T03:00:48;0.90;;;0.90;;
67063;SDS011;58476;48.072;11.970;2023-04-25T03:03:15;0.93;;;0.73;;
67063;SDS011;58476;48.072;11.970;2023-04-25T03:05:41;2.17;;;0.80;;
67063;SDS011;58476;48.072;11.970;2023-04-25T03:08:06;0.85;;;0.80;;
67063;SDS011;58476;48.072;11.970;2023-04-25T03:10:32;0.60;;;0.60;;
67063;SDS011;58476;48.072;11.970;2023-04-25T03:13:02;0.80;;;0.80;;
67063;SDS011;58476;48.072;11.970;2023-04-25T03:15:27;0.70;;;0.70;;
67063;SDS011;58476;48.072;11.970;2023-04-25T03:17:53;1.00;;;0.85;;
67063;SDS011;58476;48.072;11.970;2023-04-25T03:20:18;1.05;;;0.90;;
67063;SDS011;58476;48.072;11.970;2023-04-25T03:22:43;0.77;;;0.77;;
67063;SDS011;58476;48.072;11.970;2023-04-25T03:25:09;0.90;;;0.90;;
67063;SDS011;58476;48.072;11.970;2023-04-25T03:27:34;0.52;;;0.52;;
67063;SDS011;58476;48.072;11.970;2023-04-25T03:29:59;1.02;;;0.80;;
67063;SDS011;58476;48.072;11.970;2023-04-25T03:32:25;0.82;;;0.80;;
67063;SDS011;58476;48.072;11.970;2023-04-25T03:34:50;2.53;;;1.55;;
67063;SDS011;58476;48.072;11.970;2023-04-25T03:37:16;0.77;;;0.77;;
67063;SDS011;58476;48.072;11.970;2023-04-25T03:39:41;0.77;;;0.77;;
67063;SDS011;58476;48.072;11.970;2023-04-25T03:42:06;0.82;;;0.70;;
67063;SDS011;58476;48.072;11.970;2023-04-25T03:44:32;0.82;;;0.75;;
67063;SDS011;58476;48.072;11.970;2023-04-25T03:46:58;0.82;;;0.60;;
67063;SDS011;58476;48.072;11.970;2023-04-25T03:49:24;0.75;;;0.75;;
67063;SDS011;58476;48.072;11.970;2023-04-25T03:51:59;1.88;;;0.90;;
67063;SDS011;58476;48.072;11.970;2023-04-25T03:54:24;0.90;;;0.90;;
67063;SDS011;58476;48.072;11.970;2023-04-25T03:56:54;1.27;;;0.77;;
67063;SDS011;58476;48.072;11.970;2023-04-25T03:59:22;0.88;;;0.88;;
67063;SDS011;58476;48.072;11.970;2023-04-25T04:01:48;0.80;;;0.80;;
67063;SDS011;58476;48.072;11.970;2023-04-25T04:04:13;1.55;;;0.82;;
67063;SDS011;58476;48.072;11.970;2023-04-25T04:06:39;0.80;;;0.80;;
67063;SDS011;58476;48.072;11.970;2023-04-25T04:09:11;2.05;;;0.95;;
67063;SDS011;58476;48.072;11.970;2023-04-25T04:11:38;1.00;;;0.85;;
67063;SDS011;58476;48.072;11.970;2023-04-25T04:14:05;2.35;;;0.80;;
67063;SDS011;58476;48.072;11.970;2023-04-25T04:16:31;3.75;;;0.90;;
67063;SDS011;58476;48.072;11.970;2023-04-25T04:18:56;4.00;;;0.80;;
67063;SDS011;58476;48.072;11.970;2023-04-25T04:21:22;2.92;;;1.10;;
67063;SDS011;58476;48.072;11.970;2023-04-25T04:23:48;1.75;;;1.02;;
67063;SDS011;58476;48.072;11.970;2023-04-25T04:26:14;6.63;;;1.10;;
67063;SDS011;58476;48.072;11.970;2023-04-25T04:28:56;3.45;;;1.10;;
67063;SDS011;58476;48.072;11.970;2023-04-25T04:31:34;3.45;;;1.08;;
67063;SDS011;58476;48.072;11.970;2023-04-25T04:33:59;5.45;;;1.60;;
67063;SDS011;58476;48.072;11.970;2023-04-25T04:36:25;1.55;;;1.00;;
67063;SDS011;58476;48.072;11.970;2023-04-25T04:38:50;1.95;;;1.20;;
67063;SDS011;58476;48.072;11.970;2023-04-25T04:41:24;3.72;;;1.02;;
67063;SDS011;58476;48.072;11.970;2023-04-25T04:44:04;1.75;;;0.90;;
67063;SDS011;58476;48.072;11.970;2023-04-25T04:46:44;5.25;;;1.30;;
67063;SDS011;58476;48.072;11.970;2023-04-25T04:49:29;5.15;;;1.10;;
67063;SDS011;58476;48.072;11.970;2023-04-25T04:52:19;4.70;;;1.17;;
67063;SDS011;58476;48.072;11.970;2023-04-25T04:55:03;5.00;;;1.63;;
67063;SDS011;58476;48.072;11.970;2023-04-25T04:57:54;11.70;;;1.52;;
67063;SDS011;58476;48.072;11.970;2023-04-25T05:00:35;7.63;;;1.85;;
67063;SDS011;58476;48.072;11.970;2023-04-25T05:03:31;14.43;;;2.15;;
67063;SDS011;58476;48.072;11.970;2023-04-25T05:06:29;10.18;;;1.92;;
67063;SDS011;58476;48.072;11.970;2023-04-25T05:09:13;10.70;;;1.88;;
67063;SDS011;58476;48.072;11.970;2023-04-25T05:12:00;7.20;;;1.77;;
67063;SDS011;58476;48.072;11.970;2023-04-25T05:14:35;14.52;;;2.00;;
67063;SDS011;58476;48.072;11.970;2023-04-25T05:17:07;10.77;;;1.80;;
67063;SDS011;58476;48.072;11.970;2023-04-25T05:19:42;4.32;;;1.75;;
67063;SDS011;58476;48.072;11.970;2023-04-25T05:22:28;6.93;;;2.10;;
67063;SDS011;58476;48.072;11.970;2023-04-25T05:25:10;6.15;;;1.40;;
67063;SDS011;58476;48.072;11.970;2023-04-25T05:27:54;9.40;;;2.30;;
67063;SDS011;58476;48.072;11.970;2023-04-25T05:30:46;12.18;;;1.90;;
67063;SDS011;58476;48.072;11.970;2023-04-25T05:33:34;7.20;;;1.60;;
67063;SDS011;58476;48.072;11.970;2023-04-25T05:36:00;8.18;;;2.20;;
67063;SDS011;58476;48.072;11.970;2023-04-25T05:38:26;5.32;;;2.13;;
67063;SDS011;58476;48.072;11.970;2023-04-25T05:41:14;7.57;;;2.15;;
67063;SDS011;58476;48.072;11.970;2023-04-25T05:43:47;6.88;;;1.70;;
67063;SDS011;58476;48.072;11.970;2023-04-25T05:46:25;7.10;;;1.73;;
67063;SDS011;58476;48.072;11.970;2023-04-25T05:49:04;6.38;;;2.10;;
67063;SDS011;58476;48.072;11.970;2023-04-25T05:51:49;9.73;;;1.77;;
67063;SDS011;58476;48.072;11.970;2023-04-25T05:54:27;8.90;;;2.38;;
67063;SDS011;58476;48.072;11.970;2023-04-25T05:56:56;13.18;;;2.05;;
67063;SDS011;58476;48.072;11.970;2023-04-25T05:59:22;7.20;;;2.10;;
67063;SDS011;58476;48.072;11.970;2023-04-25T06:01:47;5.57;;;1.70;;
67063;SDS011;58476;48.072;11.970;2023-04-25T06:04:13;6.88;;;1.80;;
67063;SDS011;58476;48.072;11.970;2023-04-25T06:06:40;6.38;;;1.90;;
67063;SDS011;58476;48.072;11.970;2023-04-25T06:09:06;6.25;;;2.25;;
67063;SDS011;58476;48.072;11.970;2023-04-25T06:11:31;4.28;;;1.63;;
67063;SDS011;58476;48.072;11.970;2023-04-25T06:13:56;5.00;;;1.88;;
67063;SDS011;58476;48.072;11.970;2023-04-25T06:16:22;7.22;;;1.75;;
67063;SDS011;58476;48.072;11.970;2023-04-25T06:18:48;6.45;;;2.03;;
67063;SDS011;58476;48.072;11.970;2023-04-25T06:21:14;4.60;;;1.73;;
67063;SDS011;58476;48.072;11.970;2023-04-25T06:23:39;8.43;;;2.28;;
67063;SDS011;58476;48.072;11.970;2023-04-25T06:26:06;3.67;;;1.45;;
67063;SDS011;58476;48.072;11.970;2023-04-25T06:28:34;6.25;;;1.55;;
67063;SDS011;58476;48.072;11.970;2023-04-25T06:31:00;8.65;;;1.60;;
67063;SDS011;58476;48.072;11.970;2023-04-25T06:33:25;5.68;;;2.08;;
67063;SDS011;58476;48.072;11.970;2023-04-25T06:35:52;4.07;;;1.67;;
67063;SDS011;58476;48.072;11.970;2023-04-25T06:38:22;7.60;;;1.40;;
67063;SDS011;58476;48.072;11.970;2023-04-25T06:40:50;5.82;;;1.58;;
67063;SDS011;58476;48.072;11.970;2023-04-25T06:43:16;5.20;;;1.63;;
67063;SDS011;58476;48.072;11.970;2023-04-25T06:45:48;4.78;;;1.33;;
67063;SDS011;58476;48.072;11.970;2023-04-25T06:48:13;5.05;;;1.52;;
67063;SDS011;58476;48.072;11.970;2023-04-25T06:50:38;4.80;;;1.90;;
67063;SDS011;58476;48.072;11.970;2023-04-25T06:53:04;8.38;;;1.88;;
67063;SDS011;58476;48.072;11.970;2023-04-25T06:55:29;7.45;;;1.90;;
67063;SDS011;58476;48.072;11.970;2023-04-25T06:58:05;8.68;;;2.72;;
67063;SDS011;58476;48.072;11.970;2023-04-25T07:00:50;10.32;;;2.22;;
67063;SDS011;58476;48.072;11.970;2023-04-25T07:03:16;9.18;;;1.70;;
67063;SDS011;58476;48.072;11.970;2023-04-25T07:05:42;5.75;;;1.70;;
67063;SDS011;58476;48.072;11.970;2023-04-25T07:08:07;13.68;;;1.85;;
67063;SDS011;58476;48.072;11.970;2023-04-25T07:10:33;7.40;;;2.00;;
67063;SDS011;58476;48.072;11.970;2023-04-25T07:12:58;6.20;;;1.65;;
67063;SDS011;58476;48.072;11.970;2023-04-25T07:15:23;10.15;;;2.67;;
67063;SDS011;58476;48.072;11.970;2023-04-25T07:17:49;6.78;;;1.77;;
67063;SDS011;58476;48.072;11.970;2023-04-25T07:20:14;8.77;;;2.10;;
67063;SDS011;58476;48.072;11.970;2023-04-25T07:22:40;10.20;;;2.20;;
67063;SDS011;58476;48.072;11.970;2023-04-25T07:25:05;4.22;;;1.55;;
67063;SDS011;58476;48.072;11.970;2023-04-25T07:27:32;8.85;;;1.70;;
67063;SDS011;58476;48.072;11.970;2023-04-25T07:30:06;3.80;;;1.52;;
67063;SDS011;58476;48.072;11.970;2023-04-25T07:32:32;8.73;;;1.77;;
67063;SDS011;58476;48.072;11.970;2023-04-25T07:34:57;6.55;;;1.52;;
67063;SDS011;58476;48.072;11.970;2023-04-25T07:37:22;5.82;;;1.50;;
67063;SDS011;58476;48.072;11.970;2023-04-25T07:40:08;6.55;;;2.30;;
67063;SDS011;58476;48.072;11.970;2023-04-25T07:42:34;7.72;;;1.77;;
67063;SDS011;58476;48.072;11.970;2023-04-25T07:45:00;9.85;;;2.20;;
67063;SDS011;58476;48.072;11.970;2023-04-25T07:47:26;9.00;;;2.22;;
67063;SDS011;58476;48.072;11.970;2023-04-25T07:49:52;9.77;;;2.60;;
67063;SDS011;58476;48.072;11.970;2023-04-25T07:52:17;10.00;;;2.30;;
67063;SDS011;58476;48.072;11.970;2023-04-25T07:54:48;9.80;;;2.30;;
67063;SDS011;58476;48.072;11.970;2023-04-25T07:57:18;8.23;;;2.60;;
67063;SDS011;58476;48.072;11.970;2023-04-25T07:59:45;9.63;;;2.40;;
67063;SDS011;58476;48.072;11.970;2023-04-25T08:02:11;8.82;;;2.50;;
67063;SDS011;58476;48.072;11.970;2023-04-25T08:04:38;8.98;;;2.47;;
67063;SDS011;58476;48.072;11.970;2023-04-25T08:07:06;5.22;;;2.35;;
67063;SDS011;58476;48.072;11.970;2023-04-25T08:09:43;4.75;;;2.10;;
67063;SDS011;58476;48.072;11.970;2023-04-25T08:12:16;8.27;;;3.58;;
67063;SDS011;58476;48.072;11.970;2023-04-25T08:14:41;8.07;;;2.30;;
67063;SDS011;58476;48.072;11.970;2023-04-25T08:17:09;6.93;;;2.20;;
67063;SDS011;58476;48.072;11.970;2023-04-25T08:19:39;6.65;;;1.90;;
67063;SDS011;58476;48.072;11.970;2023-04-25T08:22:05;6.05;;;2.08;;
67063;SDS011;58476;48.072;11.970;2023-04-25T08:24:42;5.20;;;1.95;;
67063;SDS011;58476;48.072;11.970;2023-04-25T08:27:08;8.40;;;2.40;;
67063;SDS011;58476;48.072;11.970;2023-04-25T08:29:34;6.30;;;2.67;;
67063;SDS011;58476;48.072;11.970;2023-04-25T08:31:59;9.23;;;2.10;;
67063;SDS011;58476;48.072;11.970;2023-04-25T08:34:25;9.48;;;2.78;;
67063;SDS011;58476;48.072;11.970;2023-04-25T08:36:51;7.25;;;2.40;;
67063;SDS011;58476;48.072;11.970;2023-04-25T08:39:49;10.48;;;2.05;;
67063;SDS011;58476;48.072;11.970;2023-04-25T08:42:32;7.80;;;2.58;;
67063;SDS011;58476;48.072;11.970;2023-04-25T08:45:00;5.75;;;2.00;;
67063;SDS011;58476;48.072;11.970;2023-04-25T08:47:31;6.72;;;2.00;;
67063;SDS011;58476;48.072;11.970;2023-04-25T08:49:58;5.97;;;2.17;;
67063;SDS011;58476;48.072;11.970;2023-04-25T08:52:27;8.27;;;2.17;;
67063;SDS011;58476;48.072;11.970;2023-04-25T08:54:55;5.32;;;1.60;;
67063;SDS011;58476;48.072;11.970;2023-04-25T08:57:23;4.38;;;1.85;;
67063;SDS011;58476;48.072;11.970;2023-04-25T08:59:49;2.78;;;1.58;;
67063;SDS011;58476;48.072;11.970;2023-04-25T09:02:16;4.88;;;2.08;;
67063;SDS011;58476;48.072;11.970;2023-04-25T09:04:44;8.57;;;2.30;;
67063;SDS011;58476;48.072;11.970;2023-04-25T09:07:09;7.88;;;2.15;;
67063;SDS011;58476;48.072;11.970;2023-04-25T09:09:35;2.55;;;1.45;;
67063;SDS011;58476;48.072;11.970;2023-04-25T09:12:00;5.03;;;1.60;;
67063;SDS011;58476;48.072;11.970;2023-04-25T09:14:26;3.50;;;1.45;;
67063;SDS011;58476;48.072;11.970;2023-04-25T09:17:00;5.18;;;1.40;;
67063;SDS011;58476;48.072;11.970;2023-04-25T09:19:35;3.45;;;1.40;;
67063;SDS011;58476;48.072;11.970;2023-04-25T09:22:03;3.80;;;1.38;;
67063;SDS011;58476;48.072;11.970;2023-04-25T09:24:39;3.50;;;1.52;;
67063;SDS011;58476;48.072;11.970;2023-04-25T09:27:06;6.07;;;1.50;;
67063;SDS011;58476;48.072;11.970;2023-04-25T09:29:35;4.20;;;1.70;;
67063;SDS011;58476;48.072;11.970;2023-04-25T09:34:43;3.95;;;1.60;;
67063;SDS011;58476;48.072;11.970;2023-04-25T09:37:13;4.53;;;1.67;;
67063;SDS011;58476;48.072;11.970;2023-04-25T09:40:04;4.53;;;1.70;;
67063;SDS011;58476;48.072;11.970;2023-04-25T09:42:33;7.47;;;1.63;;
67063;SDS011;58476;48.072;11.970;2023-04-25T09:44:59;2.55;;;1.27;;
67063;SDS011;58476;48.072;11.970;2023-04-25T09:47:26;3.42;;;1.10;;
67063;SDS011;58476;48.072;11.970;2023-04-25T09:49:52;4.22;;;1.40;;
67063;SDS011;58476;48.072;11.970;2023-04-25T09:52:20;1.95;;;1.27;;
67063;SDS011;58476;48.072;11.970;2023-04-25T09:55:06;5.75;;;1.40;;
67063;SDS011;58476;48.072;11.970;2023-04-25T09:57:33;3.92;;;1.60;;
67063;SDS011;58476;48.072;11.970;2023-04-25T10:00:00;4.45;;;1.10;;
67063;SDS011;58476;48.072;11.970;2023-04-25T10:02:39;10.07;;;1.60;;
67063;SDS011;58476;48.072;11.970;2023-04-25T10:05:09;4.13;;;1.20;;
67063;SDS011;58476;48.072;11.970;2023-04-25T10:07:39;1.73;;;1.17;;
67063;SDS011;58476;48.072;11.970;2023-04-25T10:10:10;3.83;;;1.17;;
67063;SDS011;58476;48.072;11.970;2023-04-25T10:12:38;2.22;;;1.30;;
67063;SDS011;58476;48.072;11.970;2023-04-25T10:15:03;1.83;;;0.90;;
67063;SDS011;58476;48.072;11.970;2023-04-25T10:17:29;3.20;;;1.02;;
67063;SDS011;58476;48.072;11.970;2023-04-25T10:19:55;7.82;;;1.20;;
67063;SDS011;58476;48.072;11.970;2023-04-25T10:22:23;3.30;;;1.00;;
67063;SDS011;58476;48.072;11.970;2023-04-25T10:24:54;2.47;;;1.00;;
67063;SDS011;58476;48.072;11.970;2023-04-25T10:27:21;3.95;;;1.10;;
67063;SDS011;58476;48.072;11.970;2023-04-25T10:29:59;1.55;;;0.90;;
67063;SDS011;58476;48.072;11.970;2023-04-25T10:32:27;2.83;;;1.10;;
67063;SDS011;58476;48.072;11.970;2023-04-25T10:34:53;2.15;;;1.27;;
67063;SDS011;58476;48.072;11.970;2023-04-25T10:37:19;3.15;;;1.30;;
67063;SDS011;58476;48.072;11.970;2023-04-25T10:39:44;1.42;;;1.15;;
67063;SDS011;58476;48.072;11.970;2023-04-25T10:42:09;2.00;;;1.00;;
67063;SDS011;58476;48.072;11.970;2023-04-25T10:44:36;0.93;;;0.88;;
67063;SDS011;58476;48.072;11.970;2023-04-25T10:47:02;3.92;;;1.00;;
67063;SDS011;58476;48.072;11.970;2023-04-25T10:49:28;1.02;;;0.90;;
67063;SDS011;58476;48.072;11.970;2023-04-25T10:52:16;8.85;;;1.10;;
67063;SDS011;58476;48.072;11.970;2023-04-25T10:54:56;1.55;;;1.02;;
67063;SDS011;58476;48.072;11.970;2023-04-25T10:58:05;2.10;;;0.93;;
67063;SDS011;58476;48.072;11.970;2023-04-25T11:00:15;1.95;;;0.93;;
67063;SDS011;58476;48.072;11.970;2023-04-25T11:02:46;3.67;;;1.08;;
67063;SDS011;58476;48.072;11.970;2023-04-25T11:05:18;1.58;;;1.00;;
67063;SDS011;58476;48.072;11.970;2023-04-25T11:07:57;1.48;;;1.10;;
67063;SDS011;58476;48.072;11.970;2023-04-25T11:12:56;2.85;;;1.10;;
67063;SDS011;58476;48.072;11.970;2023-04-25T11:15:22;2.25;;;1.00;;
67063;SDS011;58476;48.072;11.970;2023-04-25T11:17:50;4.50;;;1.20;;
67063;SDS011;58476;48.072;11.970;2023-04-25T11:20:16;8.38;;;1.20;;
67063;SDS011;58476;48.072;11.970;2023-04-25T11:22:41;2.13;;;1.15;;
67063;SDS011;58476;48.072;11.970;2023-04-25T11:25:10;2.10;;;1.23;;
67063;SDS011;58476;48.072;11.970;2023-04-25T11:27:37;6.88;;;1.48;;
67063;SDS011;58476;48.072;11.970;2023-04-25T11:30:10;3.38;;;1.20;;
67063;SDS011;58476;48.072;11.970;2023-04-25T11:32:40;2.17;;;1.20;;
67063;SDS011;58476;48.072;11.970;2023-04-25T11:35:05;4.32;;;1.40;;
67063;SDS011;58476;48.072;11.970;2023-04-25T11:37:31;4.05;;;1.10;;
67063;SDS011;58476;48.072;11.970;2023-04-25T11:39:57;6.80;;;1.13;;
67063;SDS011;58476;48.072;11.970;2023-04-25T11:42:22;10.40;;;1.60;;
67063;SDS011;58476;48.072;11.970;2023-04-25T11:44:48;15.52;;;1.58;;
67063;SDS011;58476;48.072;11.970;2023-04-25T11:47:13;11.25;;;1.73;;
67063;SDS011;58476;48.072;11.970;2023-04-25T11:49:38;13.70;;;2.15;;
67063;SDS011;58476;48.072;11.970;2023-04-25T11:52:05;8.85;;;1.35;;
67063;SDS011;58476;48.072;11.970;2023-04-25T11:54:31;10.98;;;1.30;;
67063;SDS011;58476;48.072;11.970;2023-04-25T11:57:00;8.52;;;1.30;;
67063;SDS011;58476;48.072;11.970;2023-04-25T11:59:25;10.18;;;1.27;;
67063;SDS011;58476;48.072;11.970;2023-04-25T12:01:51;8.82;;;1.35;;
67063;SDS011;58476;48.072;11.970;2023-04-25T12:04:17;9.75;;;1.42;;
67063;SDS011;58476;48.072;11.970;2023-04-25T12:06:43;8.55;;;1.20;;
67063;SDS011;58476;48.072;11.970;2023-04-25T12:09:10;7.50;;;1.23;;
67063;SDS011;58476;48.072;11.970;2023-04-25T12:11:43;8.23;;;1.30;;
67063;SDS011;58476;48.072;11.970;2023-04-25T12:14:09;8.75;;;2.00;;
67063;SDS011;58476;48.072;11.970;2023-04-25T12:16:42;16.15;;;1.80;;
67063;SDS011;58476;48.072;11.970;2023-04-25T12:19:09;15.45;;;2.00;;
67063;SDS011;58476;48.072;11.970;2023-04-25T12:21:34;28.85;;;3.63;;
67063;SDS011;58476;48.072;11.970;2023-04-25T12:24:21;11.38;;;1.80;;
67063;SDS011;58476;48.072;11.970;2023-04-25T12:26:48;10.60;;;1.60;;
67063;SDS011;58476;48.072;11.970;2023-04-25T12:29:28;11.47;;;2.17;;
67063;SDS011;58476;48.072;11.970;2023-04-25T12:31:55;10.38;;;1.50;;
67063;SDS011;58476;48.072;11.970;2023-04-25T12:34:21;8.05;;;1.63;;
67063;SDS011;58476;48.072;11.970;2023-04-25T12:36:48;10.93;;;2.13;;
67063;SDS011;58476;48.072;11.970;2023-04-25T12:39:17;11.10;;;1.73;;
67063;SDS011;58476;48.072;11.970;2023-04-25T12:41:43;5.75;;;1.42;;
67063;SDS011;58476;48.072;11.970;2023-04-25T12:44:09;6.75;;;1.98;;
67063;SDS011;58476;48.072;11.970;2023-04-25T12:46:35;10.43;;;1.60;;
67063;SDS011;58476;48.072;11.970;2023-04-25T12:49:00;12.75;;;2.15;;
67063;SDS011;58476;48.072;11.970;2023-04-25T12:51:26;10.57;;;1.83;;
67063;SDS011;58476;48.072;11.970;2023-04-25T12:53:51;16.85;;;1.98;;
67063;SDS011;58476;48.072;11.970;2023-04-25T12:56:16;5.47;;;1.23;;
67063;SDS011;58476;48.072;11.970;2023-04-25T12:58:42;15.00;;;1.85;;
67063;SDS011;58476;48.072;11.970;2023-04-25T13:01:07;16.98;;;1.80;;
67063;SDS011;58476;48.072;11.970;2023-04-25T13:03:32;8.90;;;1.52;;
67063;SDS011;58476;48.072;11.970;2023-04-25T13:05:58;5.43;;;1.20;;
67063;SDS011;58476;48.072;11.970;2023-04-25T13:08:23;13.65;;;1.60;;
67063;SDS011;58476;48.072;11.970;2023-04-25T13:10:48;8.15;;;1.85;;
67063;SDS011;58476;48.072;11.970;2023-04-25T13:13:14;8.07;;;1.58;;
67063;SDS011;58476;48.072;11.970;2023-04-25T13:15:39;5.60;;;1.30;;
67063;SDS011;58476;48.072;11.970;2023-04-25T13:18:04;4.78;;;1.38;;
67063;SDS011;58476;48.072;11.970;2023-04-25T13:20:30;8.82;;;1.35;;
67063;SDS011;58476;48.072;11.970;2023-04-25T13:22:55;6.63;;;1.05;;
67063;SDS011;58476;48.072;11.970;2023-04-25T13:25:21;4.25;;;1.10;;
67063;SDS011;58476;48.072;11.970;2023-04-25T13:27:46;8.73;;;1.33;;
67063;SDS011;58476;48.072;11.970;2023-04-25T13:30:12;9.40;;;1.20;;
67063;SDS011;58476;48.072;11.970;2023-04-25T13:32:37;6.85;;;1.30;;
67063;SDS011;58476;48.072;11.970;2023-04-25T13:35:03;9.40;;;1.38;;
67063;SDS011;58476;48.072;11.970;2023-04-25T13:37:30;6.28;;;1.20;;
67063;SDS011;58476;48.072;11.970;2023-04-25T13:39:55;6.93;;;1.98;;
67063;SDS011;58476;48.072;11.970;2023-04-25T13:42:20;3.95;;;1.15;;
67063;SDS011;58476;48.072;11.970;2023-04-25T13:44:46;5.80;;;1.30;;
67063;SDS011;58476;48.072;11.970;2023-04-25T13:47:11;19.02;;;1.83;;
67063;SDS011;58476;48.072;11.970;2023-04-25T13:49:37;11.20;;;1.40;;
67063;SDS011;58476;48.072;11.970;2023-04-25T13:52:02;4.43;;;1.30;;
67063;SDS011;58476;48.072;11.970;2023-04-25T13:54:27;5.20;;;1.20;;
67063;SDS011;58476;48.072;11.970;2023-04-25T13:56:53;6.97;;;1.10;;
67063;SDS011;58476;48.072;11.970;2023-04-25T13:59:18;7.55;;;1.35;;
67063;SDS011;58476;48.072;11.970;2023-04-25T14:01:44;6.70;;;1.00;;
67063;SDS011;58476;48.072;11.970;2023-04-25T14:04:09;5.90;;;1.13;;
67063;SDS011;58476;48.072;11.970;2023-04-25T14:06:34;4.07;;;1.00;;
67063;SDS011;58476;48.072;11.970;2023-04-25T14:09:00;4.53;;;1.08;;
67063;SDS011;58476;48.072;11.970;2023-04-25T14:11:25;7.47;;;1.30;;
67063;SDS011;58476;48.072;11.970;2023-04-25T14:13:51;4.95;;;1.25;;
67063;SDS011;58476;48.072;11.970;2023-04-25T14:16:16;2.33;;;0.80;;
67063;SDS011;58476;48.072;11.970;2023-04-25T14:18:42;2.65;;;1.02;;
67063;SDS011;58476;48.072;11.970;2023-04-25T14:21:07;5.97;;;1.30;;
67063;SDS011;58476;48.072;11.970;2023-04-25T14:23:32;7.72;;;1.42;;
67063;SDS011;58476;48.072;11.970;2023-04-25T14:25:58;10.30;;;2.13;;
67063;SDS011;58476;48.072;11.970;2023-04-25T14:28:23;3.10;;;1.00;;
67063;SDS011;58476;48.072;11.970;2023-04-25T14:30:48;10.65;;;1.20;;
67063;SDS011;58476;48.072;11.970;2023-04-25T14:33:14;14.27;;;1.48;;
67063;SDS011;58476;48.072;11.970;2023-04-25T14:35:39;7.55;;;1.15;;
67063;SDS011;58476;48.072;11.970;2023-04-25T14:38:05;4.20;;;1.15;;
67063;SDS011;58476;48.072;11.970;2023-04-25T14:40:30;5.85;;;1.10;;
67063;SDS011;58476;48.072;11.970;2023-04-25T14:42:55;5.10;;;1.23;;
67063;SDS011;58476;48.072;11.970;2023-04-25T14:45:21;6.07;;;1.10;;
67063;SDS011;58476;48.072;11.970;2023-04-25T14:47:46;4.35;;;0.82;;